createdAt,value
2023-01-19T00:00:14.997Z,94005.98
2023-01-19T00:02:43.520Z,93997.52
2023-01-19T00:05:10.695Z,94004.09
2023-01-19T00:07:37.598Z,94001.35
2023-01-19T00:10:05.056Z,94017.70
2023-01-19T00:12:31.941Z,94015.17
2023-01-19T00:14:58.925Z,94015.95
2023-01-19T00:17:25.833Z,94018.70
2023-01-19T00:19:52.676Z,94021.73
2023-01-19T00:22:19.473Z,94023.15
2023-01-19T00:24:46.282Z,94033.68
2023-01-19T00:27:13.167Z,94032.49
2023-01-19T00:29:39.967Z,94024.41
2023-01-19T00:32:07.132Z,94029.89
2023-01-19T00:34:49.648Z,94034.71
2023-01-19T00:37:17.558Z,94026.89
2023-01-19T00:39:45.086Z,94032.56
2023-01-19T00:42:31.914Z,94039.97
2023-01-19T00:44:58.830Z,94038.27
2023-01-19T00:47:25.980Z,94033.02
2023-01-19T00:49:52.782Z,94022.11
2023-01-19T00:52:19.755Z,94024.13
2023-01-19T00:54:46.548Z,94019.44
2023-01-19T00:57:13.621Z,94021.98
2023-01-19T00:59:40.404Z,94028.15
2023-01-19T01:02:07.512Z,94028.46
2023-01-19T01:04:34.517Z,94020.04
2023-01-19T01:07:01.250Z,94012.41
2023-01-19T01:09:28.284Z,94022.78
2023-01-19T01:11:55.094Z,94021.85
2023-01-19T01:14:21.901Z,94010.98
2023-01-19T01:16:48.850Z,94010.77
2023-01-19T01:19:16.166Z,94005.73
2023-01-19T01:21:43.114Z,94003.34
2023-01-19T01:24:10.248Z,94003.81
2023-01-19T01:26:37.038Z,93999.77
2023-01-19T01:29:06.382Z,94004.09
2023-01-19T01:31:33.186Z,93996.05
2023-01-19T01:34:00.104Z,94009.95
2023-01-19T01:36:29.196Z,94015.47
2023-01-19T01:38:55.992Z,94007.45
2023-01-19T01:41:25.450Z,94008.08
2023-01-19T01:43:58.355Z,94012.51
2023-01-19T01:46:26.869Z,94015.70
2023-01-19T01:48:59.400Z,94017.95
2023-01-19T01:51:33.346Z,94012.65
2023-01-19T01:54:19.955Z,94004.02
2023-01-19T01:56:49.704Z,93997.96
2023-01-19T01:59:29.436Z,94011.58
2023-01-19T02:02:18.781Z,94025.64
2023-01-19T02:05:00.687Z,94020.77
2023-01-19T02:07:51.396Z,94008.77
2023-01-19T02:10:37.359Z,94018.36
2023-01-19T02:13:22.607Z,94007.59
2023-01-19T02:15:53.379Z,94012.56
2023-01-19T02:18:22.463Z,93994.27
2023-01-19T02:21:14.533Z,93994.79
2023-01-19T02:23:44.664Z,93990.87
2023-01-19T02:26:16.271Z,93988.20
2023-01-19T02:28:48.445Z,93992.69
2023-01-19T02:31:15.326Z,93982.95
2023-01-19T02:33:42.436Z,93988.41
2023-01-19T02:36:12.633Z,93992.73
2023-01-19T02:38:42.080Z,94001.41
2023-01-19T02:41:11.393Z,94001.48
2023-01-19T02:43:39.066Z,94002.75
2023-01-19T02:46:06.123Z,94004.89
2023-01-19T02:48:32.971Z,93996.06
2023-01-19T02:51:12.734Z,94002.45
2023-01-19T02:54:02.616Z,93996.09
2023-01-19T02:56:29.353Z,93989.08
2023-01-19T02:59:06.259Z,93995.81
2023-01-19T03:01:56.829Z,93996.86
2023-01-19T03:04:26.708Z,93989.33
2023-01-19T03:07:14.577Z,94002.34
2023-01-19T03:09:52.762Z,94003.23
2023-01-19T03:12:32.755Z,93984.42
2023-01-19T03:15:06.013Z,93990.57
2023-01-19T03:17:34.656Z,93993.30
2023-01-19T03:20:03.840Z,94006.14
2023-01-19T03:22:32.393Z,93991.91
2023-01-19T03:25:01.778Z,93985.14
2023-01-19T03:27:32.776Z,93996.25
2023-01-19T03:30:05.438Z,93994.29
2023-01-19T03:32:37.995Z,93997.91
2023-01-19T03:35:11.849Z,93993.30
2023-01-19T03:37:44.170Z,94004.55
2023-01-19T03:40:12.071Z,93990.55
2023-01-19T03:42:40.847Z,93995.06
2023-01-19T03:45:09.233Z,93982.20
2023-01-19T03:47:36.617Z,93979.02
2023-01-19T03:50:09.011Z,93990.86
2023-01-19T03:52:35.797Z,93990.04
2023-01-19T03:55:04.593Z,93989.67
2023-01-19T03:57:31.747Z,93983.21
2023-01-19T03:59:58.548Z,93979.73
2023-01-19T04:02:25.609Z,93973.94
2023-01-19T04:04:52.498Z,93986.86
2023-01-19T04:07:19.322Z,93998.59
2023-01-19T04:09:46.125Z,93984.64
2023-01-19T04:12:12.951Z,93999.16
2023-01-19T04:14:39.755Z,93992.88
2023-01-19T04:17:06.605Z,93976.56
2023-01-19T04:19:33.458Z,93985.71
2023-01-19T04:22:00.642Z,93971.51
2023-01-19T04:24:28.095Z,93968.40
2023-01-19T04:26:54.892Z,93968.67
2023-01-19T04:29:21.678Z,93964.17
2023-01-19T04:31:48.524Z,93960.61
2023-01-19T04:34:15.402Z,93952.48
2023-01-19T04:36:42.153Z,93961.24
2023-01-19T04:39:09.263Z,93963.86
2023-01-19T04:41:36.096Z,93964.92
2023-01-19T04:44:03.336Z,93975.36
2023-01-19T04:46:30.125Z,93987.60
2023-01-19T04:48:57.005Z,93981.80
2023-01-19T04:51:23.939Z,93985.64
2023-01-19T04:53:50.787Z,93989.36
2023-01-19T04:56:17.510Z,93991.11
2023-01-19T04:58:44.408Z,93994.89
2023-01-19T05:01:11.284Z,93995.36
2023-01-19T05:03:38.141Z,93998.55
2023-01-19T05:06:05.000Z,94002.92
2023-01-19T05:08:31.795Z,94018.30
2023-01-19T05:10:58.593Z,94032.73
2023-01-19T05:13:26.245Z,94037.05
2023-01-19T05:15:53.129Z,94038.67
2023-01-19T05:18:19.951Z,94045.36
2023-01-19T05:20:47.056Z,94046.54
2023-01-19T05:23:13.847Z,94059.94
2023-01-19T05:25:40.637Z,94066.50
2023-01-19T05:28:07.705Z,94053.17
2023-01-19T05:30:34.599Z,94057.86
2023-01-19T05:33:01.726Z,94057.81
2023-01-19T05:35:35.768Z,94030.95
2023-01-19T05:38:03.349Z,94028.00
2023-01-19T05:40:30.174Z,94034.73
2023-01-19T05:43:01.142Z,94032.58
2023-01-19T05:45:28.684Z,94036.59
2023-01-19T05:47:55.848Z,94047.40
2023-01-19T05:50:22.760Z,94050.15
2023-01-19T05:52:49.643Z,94057.75
2023-01-19T05:55:16.641Z,94064.06
2023-01-19T05:57:43.655Z,94056.75
2023-01-19T06:00:11.008Z,94048.20
2023-01-19T06:02:40.023Z,94043.91
2023-01-19T06:05:07.107Z,94048.77
2023-01-19T06:07:33.967Z,94061.11
2023-01-19T06:10:01.292Z,94033.92
2023-01-19T06:12:28.290Z,94033.07
2023-01-19T06:14:55.039Z,94028.79
2023-01-19T06:17:21.857Z,94040.23
2023-01-19T06:19:48.762Z,94046.36
2023-01-19T06:22:15.840Z,94051.98
2023-01-19T06:24:42.801Z,94040.27
2023-01-19T06:27:09.664Z,94024.49
2023-01-19T06:29:36.779Z,94020.02
2023-01-19T06:32:03.747Z,94027.61
2023-01-19T06:34:30.518Z,94044.61
2023-01-19T06:36:57.857Z,94045.45
2023-01-19T06:39:24.745Z,94034.60
2023-01-19T06:41:51.943Z,94032.86
2023-01-19T06:44:18.709Z,94043.75
2023-01-19T06:46:45.615Z,94060.69
2023-01-19T06:49:12.385Z,94076.27
2023-01-19T06:51:39.203Z,94069.41
2023-01-19T06:54:06.134Z,94071.63
2023-01-19T06:56:33.037Z,94070.17
2023-01-19T06:58:59.779Z,94071.38
2023-01-19T07:01:27.145Z,94072.34
2023-01-19T07:03:54.607Z,94083.34
2023-01-19T07:06:21.443Z,94079.81
2023-01-19T07:08:48.247Z,94075.88
2023-01-19T07:11:24.721Z,94080.70
2023-01-19T07:13:57.019Z,94075.84
2023-01-19T07:16:24.015Z,94059.55
2023-01-19T07:18:51.161Z,94067.20
2023-01-19T07:21:18.459Z,94078.08
2023-01-19T07:23:48.630Z,94066.36
2023-01-19T07:26:18.621Z,94063.90
2023-01-19T07:28:47.359Z,94070.65
2023-01-19T07:31:15.772Z,94069.89
2023-01-19T07:33:42.709Z,94079.77
2023-01-19T07:36:09.852Z,94086.19
2023-01-19T07:38:36.666Z,94076.31
2023-01-19T07:41:09.728Z,94070.04
2023-01-19T07:43:36.680Z,94064.21
2023-01-19T07:46:05.784Z,94075.13
2023-01-19T07:48:32.738Z,94077.05
2023-01-19T07:51:17.990Z,94070.56
2023-01-19T07:53:45.709Z,94083.37
2023-01-19T07:56:12.675Z,94064.94
2023-01-19T07:58:40.161Z,94058.52
2023-01-19T08:01:12.696Z,94068.95
2023-01-19T08:03:40.050Z,94065.44
2023-01-19T08:06:07.446Z,94069.76
2023-01-19T08:08:34.613Z,94084.05
2023-01-19T08:11:01.401Z,94078.15
2023-01-19T08:13:28.240Z,94072.66
2023-01-19T08:15:55.453Z,94082.02
2023-01-19T08:18:22.281Z,94078.10
2023-01-19T08:20:49.177Z,94080.98
2023-01-19T08:23:18.159Z,94084.77
2023-01-19T08:25:46.040Z,94084.98
2023-01-19T08:28:15.894Z,94086.63
2023-01-19T08:30:45.565Z,94102.55
2023-01-19T08:33:13.868Z,94085.58
2023-01-19T08:35:42.392Z,94087.52
2023-01-19T08:38:10.492Z,94091.55
2023-01-19T08:40:39.440Z,94098.77
2023-01-19T08:43:09.528Z,94096.79
2023-01-19T08:45:46.700Z,94100.67
2023-01-19T08:48:18.516Z,94106.70
2023-01-19T08:50:49.524Z,94108.77
2023-01-19T08:53:16.621Z,94111.29
2023-01-19T08:55:43.630Z,94123.77
2023-01-19T08:58:10.652Z,94126.43
2023-01-19T09:00:38.991Z,94134.02
2023-01-19T09:03:07.701Z,94118.06
2023-01-19T09:05:37.427Z,94132.52
2023-01-19T09:08:11.430Z,94127.46
2023-01-19T09:10:39.185Z,94123.86
2023-01-19T09:13:08.683Z,94114.52
2023-01-19T09:15:37.850Z,94119.08
2023-01-19T09:18:08.046Z,94107.69
2023-01-19T09:20:36.307Z,94124.42
2023-01-19T09:23:03.228Z,94143.02
2023-01-19T09:25:30.490Z,94133.98
2023-01-19T09:28:00.026Z,94126.75
2023-01-19T09:30:27.898Z,94129.09
2023-01-19T09:32:54.922Z,94131.94
2023-01-19T09:35:21.734Z,94121.52
2023-01-19T09:37:48.726Z,94132.46
2023-01-19T09:40:18.977Z,94137.23
2023-01-19T09:42:55.865Z,94125.93
2023-01-19T09:45:39.892Z,94132.77
2023-01-19T09:48:35.934Z,94117.70
2023-01-19T09:51:07.767Z,94135.48
2023-01-19T09:53:42.125Z,94127.78
2023-01-19T09:56:20.252Z,94129.02
2023-01-19T09:58:48.767Z,94102.48
2023-01-19T10:01:21.494Z,94101.58
2023-01-19T10:03:53.637Z,94093.77
2023-01-19T10:06:21.824Z,94101.22
2023-01-19T10:09:05.420Z,94107.95
2023-01-19T10:11:54.508Z,94115.48
2023-01-19T10:14:30.714Z,94116.48
2023-01-19T10:17:23.602Z,94116.03
2023-01-19T10:19:56.688Z,94104.32
2023-01-19T10:22:26.897Z,94102.45
2023-01-19T10:24:57.242Z,94092.74
2023-01-19T10:27:30.773Z,94079.44
2023-01-19T10:29:59.138Z,94091.59
2023-01-19T10:32:30.482Z,94107.95
2023-01-19T10:34:59.894Z,94101.00
2023-01-19T10:37:34.344Z,94104.48
2023-01-19T10:40:03.376Z,94109.10
2023-01-19T10:42:30.988Z,94120.48
2023-01-19T10:44:57.994Z,94118.65
2023-01-19T10:47:34.079Z,94121.53
2023-01-19T10:50:22.840Z,94107.73
2023-01-19T10:52:52.605Z,94110.33
2023-01-19T10:55:34.395Z,94104.02
2023-01-19T10:58:02.169Z,94099.89
2023-01-19T11:00:29.027Z,94107.70
2023-01-19T11:02:56.015Z,94110.13
2023-01-19T11:05:31.194Z,94102.51
2023-01-19T11:07:58.573Z,94095.61
2023-01-19T11:10:26.478Z,94108.81
2023-01-19T11:13:01.872Z,94099.58
2023-01-19T11:15:48.400Z,94091.89
2023-01-19T11:18:30.272Z,94075.45
2023-01-19T11:21:03.798Z,94068.21
2023-01-19T11:23:47.199Z,94074.99
2023-01-19T11:26:24.724Z,94074.52
2023-01-19T11:28:54.843Z,94064.48
2023-01-19T11:31:27.776Z,94064.83
2023-01-19T11:34:06.678Z,94065.15
2023-01-19T11:36:36.946Z,94069.59
2023-01-19T11:39:12.548Z,94063.92
2023-01-19T11:41:41.804Z,94069.21
2023-01-19T11:44:36.878Z,94077.72
2023-01-19T11:47:12.569Z,94089.49
2023-01-19T11:49:59.880Z,94070.56
2023-01-19T11:52:43.142Z,94052.60
2023-01-19T11:55:25.433Z,94080.37
2023-01-19T11:57:54.586Z,94066.27
2023-01-19T12:00:39.639Z,94056.05
2023-01-19T12:03:09.626Z,94043.76
2023-01-19T12:05:40.894Z,94045.85
2023-01-19T12:08:14.552Z,94047.32
2023-01-19T12:10:45.549Z,94055.54
2023-01-19T12:13:26.655Z,94056.80
2023-01-19T12:15:59.989Z,94050.73
2023-01-19T12:18:35.689Z,94062.89
2023-01-19T12:21:04.183Z,94055.20
2023-01-19T12:23:57.988Z,94054.48
2023-01-19T12:26:33.574Z,94035.88
2023-01-19T12:29:24.143Z,94044.27
2023-01-19T12:32:18.237Z,94049.38
2023-01-19T12:34:46.870Z,94042.16
2023-01-19T12:37:32.449Z,94043.54
2023-01-19T12:40:28.675Z,94040.30
2023-01-19T12:42:57.701Z,94051.38
2023-01-19T12:45:29.472Z,94052.52
2023-01-19T12:47:56.827Z,94069.52
2023-01-19T12:50:26.061Z,94077.02
2023-01-19T12:52:58.504Z,94072.41
2023-01-19T12:55:31.540Z,94067.64
2023-01-19T12:58:03.767Z,94064.83
2023-01-19T13:00:36.891Z,94055.75
2023-01-19T13:03:05.093Z,94048.29
2023-01-19T13:05:33.286Z,94043.56
2023-01-19T13:08:03.243Z,94058.79
2023-01-19T13:10:54.775Z,94066.83
2023-01-19T13:13:24.598Z,94056.27
2023-01-19T13:15:55.456Z,94064.36
2023-01-19T13:18:32.030Z,94050.52
2023-01-19T13:21:01.015Z,94072.11
2023-01-19T13:23:51.793Z,94061.50
2023-01-19T13:26:21.376Z,94062.89
2023-01-19T13:28:55.086Z,94054.88
2023-01-19T13:31:23.881Z,94035.16
2023-01-19T13:33:54.821Z,94035.58
2023-01-19T13:36:27.306Z,94034.29
2023-01-19T13:38:55.539Z,94030.39
2023-01-19T13:41:25.289Z,94020.88
2023-01-19T13:44:01.751Z,94012.63
2023-01-19T13:46:30.459Z,94012.08
2023-01-19T13:49:04.586Z,94010.38
2023-01-19T13:51:31.425Z,94012.60
2023-01-19T13:53:59.919Z,94014.23
2023-01-19T13:56:28.598Z,94021.48
2023-01-19T13:58:59.553Z,94022.91
2023-01-19T14:01:29.256Z,94002.91
2023-01-19T14:03:56.906Z,94017.13
2023-01-19T14:06:31.176Z,94014.88
2023-01-19T14:09:16.755Z,94020.63
2023-01-19T14:12:07.466Z,94024.33
2023-01-19T14:14:34.468Z,94021.10
2023-01-19T14:17:01.357Z,94035.47
2023-01-19T14:19:28.731Z,94035.36
2023-01-19T14:22:03.918Z,94014.20
2023-01-19T14:24:33.411Z,94018.23
2023-01-19T14:27:22.832Z,94027.85
2023-01-19T14:29:53.803Z,94035.32
2023-01-19T14:32:25.268Z,94033.48
2023-01-19T14:35:05.242Z,94037.91
2023-01-19T14:37:35.844Z,94043.60
2023-01-19T14:40:04.889Z,94040.59
2023-01-19T14:42:45.350Z,94033.30
2023-01-19T14:45:30.471Z,94047.08
2023-01-19T14:48:00.790Z,94059.85
2023-01-19T14:50:34.461Z,94069.70
2023-01-19T14:53:05.292Z,94067.48
2023-01-19T14:55:54.396Z,94062.77
2023-01-19T14:58:24.855Z,94071.90
2023-01-19T15:00:55.739Z,94075.04
2023-01-19T15:03:32.036Z,94067.70
2023-01-19T15:06:14.831Z,94062.63
2023-01-19T15:08:42.343Z,94064.61
2023-01-19T15:11:23.169Z,94061.83
2023-01-19T15:13:54.906Z,94059.77
2023-01-19T15:17:10.110Z,94059.31
2023-01-19T15:19:46.968Z,94065.73
2023-01-19T15:22:16.702Z,94082.52
2023-01-19T15:24:43.671Z,94090.11
2023-01-19T15:27:13.435Z,94095.52
2023-01-19T15:29:40.519Z,94096.66
2023-01-19T15:32:15.021Z,94084.29
2023-01-19T15:34:42.332Z,94091.08
2023-01-19T15:37:09.670Z,94096.77
2023-01-19T15:39:36.710Z,94101.92
2023-01-19T15:42:04.072Z,94090.00
2023-01-19T15:44:31.094Z,94096.45
2023-01-19T15:47:01.309Z,94098.42
2023-01-19T15:49:28.359Z,94106.98
2023-01-19T15:52:00.921Z,94113.89
2023-01-19T15:54:27.839Z,94117.36
2023-01-19T15:56:57.330Z,94128.13
2023-01-19T15:59:24.347Z,94139.70
2023-01-19T16:01:51.479Z,94149.95
2023-01-19T16:04:19.131Z,94156.92
2023-01-19T16:06:46.062Z,94154.35
2023-01-19T16:09:18.491Z,94164.45
2023-01-19T16:11:46.198Z,94184.06
2023-01-19T16:14:13.022Z,94187.15
2023-01-19T16:16:39.991Z,94188.89
2023-01-19T16:19:07.044Z,94202.77
2023-01-19T16:21:33.908Z,94225.33
2023-01-19T16:24:00.853Z,94244.41
2023-01-19T16:26:32.321Z,94263.21
2023-01-19T16:29:02.028Z,94281.60
2023-01-19T16:31:29.612Z,94292.63
2023-01-19T16:33:56.573Z,94295.96
2023-01-19T16:36:28.932Z,94287.77
2023-01-19T16:38:59.759Z,94278.30
2023-01-19T16:41:27.245Z,94289.98
2023-01-19T16:43:55.887Z,94300.47
2023-01-19T16:46:28.206Z,94296.84
2023-01-19T16:48:59.602Z,94296.94
2023-01-19T16:51:26.418Z,94295.16
2023-01-19T16:53:54.308Z,94281.17
2023-01-19T16:56:21.545Z,94282.21
2023-01-19T16:58:48.454Z,94285.67
2023-01-19T17:01:20.032Z,94290.25
2023-01-19T17:03:47.592Z,94293.23
2023-01-19T17:06:20.514Z,94289.30
2023-01-19T17:08:47.738Z,94281.10
2023-01-19T17:11:20.999Z,94284.61
2023-01-19T17:13:49.469Z,94301.36
2023-01-19T17:16:16.818Z,94291.99
2023-01-19T17:18:43.989Z,94266.07
2023-01-19T17:21:11.078Z,94242.36
2023-01-19T17:23:42.596Z,94243.56
2023-01-19T17:26:09.722Z,94256.85
2023-01-19T17:28:37.277Z,94267.19
2023-01-19T17:31:07.090Z,94266.29
2023-01-19T17:33:34.552Z,94269.73
2023-01-19T17:36:07.012Z,94271.63
2023-01-19T17:38:36.663Z,94259.00
2023-01-19T17:41:12.756Z,94239.54
2023-01-19T17:43:39.801Z,94239.02
2023-01-19T17:46:06.598Z,94241.30
2023-01-19T17:48:33.355Z,94236.05
2023-01-19T17:51:12.125Z,94249.86
2023-01-19T17:53:43.205Z,94265.61
2023-01-19T17:56:15.000Z,94276.92
2023-01-19T17:58:43.041Z,94281.23
2023-01-19T18:02:12.250Z,94286.55
2023-01-19T18:04:49.366Z,94301.66
2023-01-19T18:07:16.480Z,94299.40
2023-01-19T18:09:43.433Z,94291.98
2023-01-19T18:12:13.185Z,94292.69
2023-01-19T18:14:41.991Z,94293.88
2023-01-19T18:17:09.103Z,94300.02
2023-01-19T18:19:37.519Z,94306.07
2023-01-19T18:26:30.083Z,94308.36
2023-01-19T18:29:03.953Z,94307.11
2023-01-19T18:31:32.867Z,94309.28
2023-01-19T18:34:00.196Z,94323.27
2023-01-19T18:36:32.748Z,94330.49
2023-01-19T18:39:03.467Z,94326.06
2023-01-19T18:41:35.649Z,94316.39
2023-01-19T18:44:03.357Z,94310.70
2023-01-19T18:46:30.486Z,94309.95
2023-01-19T18:48:57.697Z,94309.12
2023-01-19T18:53:01.446Z,94304.09
2023-01-19T19:40:24.946Z,94352.88
2023-01-19T19:42:52.190Z,94368.67
2023-01-19T19:45:19.642Z,94370.54
2023-01-19T19:56:01.056Z,94350.52
2023-01-19T19:58:29.158Z,94326.40
2023-01-19T20:00:56.810Z,94318.58
2023-01-19T20:03:27.484Z,94312.53
2023-01-19T20:05:54.466Z,94304.73
2023-01-19T20:08:21.623Z,94290.91
2023-01-19T20:10:48.911Z,94287.58
2023-01-19T20:13:19.329Z,94274.13
2023-01-19T20:15:46.365Z,94285.65
2023-01-19T20:18:13.666Z,94296.52
2023-01-19T20:20:40.658Z,94310.22
2023-01-19T20:23:07.659Z,94318.87
2023-01-19T20:25:39.971Z,94319.20
2023-01-19T20:28:06.898Z,94325.20
2023-01-19T20:30:34.352Z,94345.48
2023-01-19T20:33:02.650Z,94334.46
2023-01-19T20:35:29.621Z,94320.48
2023-01-19T20:37:56.804Z,94316.36
2023-01-19T20:40:23.902Z,94314.26
2023-01-19T20:42:50.901Z,94299.17
2023-01-19T20:45:19.047Z,94274.80
2023-01-19T20:47:45.979Z,94264.65
2023-01-19T20:50:12.875Z,94289.40
2023-01-19T20:52:39.694Z,94310.04
2023-01-19T20:55:08.998Z,94304.94
2023-01-19T20:57:35.937Z,94276.02
2023-01-19T21:00:02.809Z,94265.89
2023-01-19T21:02:30.545Z,94265.08
2023-01-19T21:04:57.396Z,94263.13
2023-01-19T21:07:24.177Z,94266.56
2023-01-19T21:09:51.040Z,94263.86
2023-01-19T21:12:17.956Z,94259.35
2023-01-19T21:14:46.087Z,94255.78
2023-01-19T21:17:12.973Z,94248.73
2023-01-19T21:19:39.870Z,94245.98
2023-01-19T21:22:06.684Z,94242.60
2023-01-19T21:24:33.488Z,94249.60
2023-01-19T21:27:00.397Z,94262.45
2023-01-19T21:29:27.282Z,94271.23
2023-01-19T21:31:54.212Z,94279.39
2023-01-19T21:34:21.216Z,94283.77
2023-01-19T21:36:48.121Z,94281.67
2023-01-19T21:39:17.231Z,94275.16
2023-01-19T21:41:45.301Z,94257.33
2023-01-19T21:50:57.843Z,94244.46
2023-01-19T21:53:24.773Z,94243.49
2023-01-19T21:55:51.610Z,94236.77
2023-01-19T21:58:18.428Z,94224.13
2023-01-19T22:00:45.609Z,94216.17
2023-01-19T22:03:12.578Z,94217.52
2023-01-19T22:05:39.461Z,94222.80
2023-01-19T22:08:06.682Z,94224.77
2023-01-19T22:10:38.004Z,94223.39
2023-01-19T22:13:09.648Z,94222.91
2023-01-19T22:15:36.577Z,94219.41
2023-01-19T22:18:03.615Z,94228.25
2023-01-19T22:20:30.464Z,94242.94
2023-01-19T22:22:57.348Z,94238.61
2023-01-19T22:25:27.819Z,94246.04
2023-01-19T22:27:55.872Z,94238.34
2023-01-19T22:30:22.763Z,94222.15
2023-01-19T22:32:49.711Z,94203.11
2023-01-19T22:35:16.675Z,94194.04
2023-01-19T22:37:43.585Z,94189.35
2023-01-19T22:40:11.908Z,94192.86
2023-01-19T22:42:38.774Z,94188.90
2023-01-19T22:45:06.103Z,94187.30
2023-01-19T22:47:32.998Z,94175.66
2023-01-19T22:49:59.845Z,94183.54
2023-01-19T22:52:26.684Z,94178.10
2023-01-19T22:54:56.495Z,94174.95
2023-01-19T22:57:23.923Z,94183.80
2023-01-19T22:59:50.764Z,94190.30
2023-01-19T23:02:19.788Z,94186.50
2023-01-19T23:04:47.749Z,94176.77
2023-01-19T23:07:14.617Z,94179.76
2023-01-19T23:09:41.514Z,94191.38
2023-01-19T23:12:08.388Z,94197.41
2023-01-19T23:14:36.360Z,94215.34
2023-01-19T23:17:04.965Z,94216.67
2023-01-19T23:19:31.793Z,94203.64
2023-01-19T23:21:58.583Z,94197.92
2023-01-19T23:24:25.687Z,94213.67
2023-01-19T23:26:52.589Z,94231.04
2023-01-19T23:29:19.990Z,94240.34
2023-01-19T23:31:49.608Z,94270.33
2023-01-19T23:34:17.088Z,94301.06
2023-01-19T23:36:44.753Z,94327.95
2023-01-19T23:39:20.877Z,94333.11
2023-01-19T23:41:48.381Z,94327.46
2023-01-19T23:44:15.802Z,94319.16
2023-01-19T23:46:44.095Z,94302.98
2023-01-19T23:49:11.967Z,94292.21
2023-01-19T23:51:40.847Z,94290.42
2023-01-19T23:54:08.005Z,94285.12
2023-01-19T23:56:37.572Z,94276.19
2023-01-19T23:59:07.168Z,94262.31
